createdAt,value
2019-01-23T00:01:54.345Z,41.93
2019-01-23T00:04:23.103Z,39.87
2019-01-23T00:06:51.949Z,39.70
2019-01-23T00:09:20.674Z,37.73
2019-01-23T00:11:49.421Z,39.20
2019-01-23T00:14:18.136Z,37.87
2019-01-23T00:16:46.889Z,39.77
2019-01-23T00:19:15.614Z,37.33
2019-01-23T00:21:44.386Z,38.53
2019-01-23T00:24:13.111Z,38.00
2019-01-23T00:26:41.982Z,39.50
2019-01-23T00:29:11.038Z,37.90
2019-01-23T00:31:39.745Z,40.10
2019-01-23T00:34:08.470Z,38.80
2019-01-23T00:36:37.188Z,41.80
2019-01-23T00:39:07.473Z,39.83
2019-01-23T00:41:36.200Z,36.33
2019-01-23T00:44:05.034Z,40.70
2019-01-23T00:46:33.751Z,38.23
2019-01-23T00:49:02.452Z,41.90
2019-01-23T00:51:31.190Z,39.63
2019-01-23T00:53:59.901Z,38.47
2019-01-23T00:56:28.664Z,40.67
2019-01-23T00:58:57.365Z,38.27
2019-01-23T01:01:26.075Z,37.53
2019-01-23T01:03:54.760Z,38.03
2019-01-23T01:06:23.461Z,41.50
2019-01-23T01:08:52.199Z,39.10
2019-01-23T01:11:20.901Z,41.40
2019-01-23T01:13:49.624Z,38.87
2019-01-23T01:16:18.370Z,40.10
2019-01-23T01:18:47.107Z,37.37
2019-01-23T01:21:15.833Z,37.47
2019-01-23T01:23:44.525Z,42.17
2019-01-23T01:26:13.262Z,35.93
2019-01-23T01:28:41.970Z,38.13
2019-01-23T01:31:10.681Z,39.27
2019-01-23T01:33:39.433Z,40.97
2019-01-23T01:36:08.158Z,38.90
2019-01-23T01:38:36.854Z,39.40
2019-01-23T01:41:05.597Z,37.53
2019-01-23T01:43:34.332Z,41.43
2019-01-23T01:46:03.056Z,39.90
2019-01-23T01:48:31.783Z,41.60
2019-01-23T01:51:00.797Z,40.63
2019-01-23T01:53:29.508Z,39.93
2019-01-23T01:55:58.230Z,38.80
2019-01-23T01:58:26.947Z,40.03
2019-01-23T02:00:55.649Z,40.10
2019-01-23T02:03:24.354Z,39.00
2019-01-23T02:05:53.079Z,40.60
2019-01-23T02:08:21.802Z,39.87
2019-01-23T02:10:50.539Z,38.33
2019-01-23T02:13:19.250Z,39.47
2019-01-23T02:15:47.978Z,39.90
2019-01-23T02:18:16.705Z,39.13
2019-01-23T02:20:45.553Z,38.20
2019-01-23T02:23:14.258Z,42.37
2019-01-23T02:25:42.990Z,37.83
2019-01-23T02:28:11.913Z,36.23
2019-01-23T02:30:40.640Z,37.70
2019-01-23T02:33:09.350Z,40.50
2019-01-23T02:35:38.146Z,37.20
2019-01-23T02:38:06.858Z,39.33
2019-01-23T02:40:35.631Z,38.23
2019-01-23T02:43:04.328Z,40.80
2019-01-23T02:45:33.066Z,37.47
2019-01-23T02:48:01.774Z,40.20
2019-01-23T02:50:30.473Z,39.97
2019-01-23T02:52:59.169Z,41.73
2019-01-23T02:55:27.958Z,35.23
2019-01-23T02:57:56.970Z,36.30
2019-01-23T03:00:25.673Z,37.27
2019-01-23T03:02:54.430Z,40.33
2019-01-23T03:05:23.292Z,37.00
2019-01-23T03:07:52.126Z,38.37
2019-01-23T03:10:21.310Z,38.13
2019-01-23T03:12:50.045Z,39.10
2019-01-23T03:15:18.839Z,42.80
2019-01-23T03:17:47.547Z,36.33
2019-01-23T03:20:17.106Z,38.23
2019-01-23T03:22:45.879Z,36.43
2019-01-23T03:25:15.055Z,38.80
2019-01-23T03:27:43.817Z,41.20
2019-01-23T03:30:14.060Z,37.43
2019-01-23T03:32:42.786Z,36.93
2019-01-23T03:35:11.511Z,37.67
2019-01-23T03:37:40.204Z,39.93
2019-01-23T03:40:12.948Z,38.27
2019-01-23T03:42:41.730Z,40.83
2019-01-23T03:45:11.123Z,38.20
2019-01-23T03:47:40.441Z,37.47
2019-01-23T03:50:10.050Z,35.77
2019-01-23T03:52:38.768Z,33.47
2019-01-23T03:55:12.099Z,35.10
2019-01-23T03:57:38.493Z,36.37
2019-01-23T04:00:08.703Z,34.57
2019-01-23T04:02:37.450Z,36.37
2019-01-23T04:05:07.106Z,36.67
2019-01-23T04:07:35.813Z,34.90
2019-01-23T04:10:05.476Z,35.77
2019-01-23T04:12:34.163Z,35.03
2019-01-23T04:15:02.872Z,33.47
2019-01-23T04:17:31.569Z,35.70
2019-01-23T04:20:00.263Z,32.80
2019-01-23T04:22:29.009Z,33.23
2019-01-23T04:24:57.710Z,34.17
2019-01-23T04:27:26.445Z,32.60
2019-01-23T04:29:55.152Z,34.20
2019-01-23T04:32:23.860Z,33.43
2019-01-23T04:34:52.546Z,34.77
2019-01-23T04:37:21.267Z,33.33
2019-01-23T04:39:49.975Z,35.30
2019-01-23T04:42:18.665Z,33.03
2019-01-23T04:44:47.398Z,32.90
2019-01-23T04:47:16.123Z,32.13
2019-01-23T04:49:44.813Z,34.63
2019-01-23T04:52:23.959Z,33.27
2019-01-23T04:54:52.670Z,32.97
2019-01-23T04:57:21.383Z,33.63
2019-01-23T04:59:50.122Z,33.30
2019-01-23T05:02:18.805Z,32.27
2019-01-23T05:04:47.530Z,34.80
2019-01-23T05:07:16.234Z,34.63
2019-01-23T05:09:44.971Z,33.20
2019-01-23T05:12:13.669Z,32.17
2019-01-23T05:14:42.415Z,34.40
2019-01-23T05:17:11.163Z,35.03
2019-01-23T05:19:40.151Z,36.40
2019-01-23T05:22:08.843Z,31.17
2019-01-23T05:24:37.620Z,34.13
2019-01-23T05:27:06.618Z,35.27
2019-01-23T05:29:35.368Z,38.23
2019-01-23T05:32:04.078Z,34.33
2019-01-23T05:34:32.811Z,34.07
2019-01-23T05:37:01.533Z,33.73
2019-01-23T05:39:30.259Z,36.23
2019-01-23T05:41:58.955Z,37.70
2019-01-23T05:44:27.723Z,35.53
2019-01-23T05:46:56.426Z,38.47
2019-01-23T05:49:25.139Z,34.97
2019-01-23T05:51:53.882Z,40.80
2019-01-23T05:54:22.606Z,38.80
2019-01-23T05:56:51.372Z,39.20
2019-01-23T05:59:20.072Z,37.23
2019-01-23T06:01:48.820Z,37.93
2019-01-23T06:04:17.616Z,39.43
2019-01-23T06:06:46.342Z,38.93
2019-01-23T06:09:15.063Z,37.53
2019-01-23T06:11:43.786Z,41.10
2019-01-23T06:14:12.513Z,39.60
2019-01-23T06:16:41.247Z,40.03
2019-01-23T06:19:09.978Z,40.57
2019-01-23T06:21:38.704Z,44.73
2019-01-23T06:24:07.427Z,45.87
2019-01-23T06:26:36.151Z,42.17
2019-01-23T06:29:04.905Z,47.37
2019-01-23T06:31:33.673Z,44.37
2019-01-23T06:34:02.370Z,43.50
2019-01-23T06:36:31.151Z,43.77
2019-01-23T06:38:59.882Z,47.00
2019-01-23T06:41:28.599Z,42.93
2019-01-23T06:43:57.330Z,44.43
2019-01-23T06:46:26.048Z,45.23
2019-01-23T06:48:55.166Z,41.90
2019-01-23T06:51:23.938Z,42.50
2019-01-23T06:53:52.694Z,45.00
2019-01-23T06:56:21.466Z,41.70
2019-01-23T06:58:50.176Z,43.13
2019-01-23T07:01:18.918Z,43.47
2019-01-23T07:03:47.666Z,43.23
2019-01-23T07:06:16.394Z,44.27
2019-01-23T07:08:45.141Z,43.57
2019-01-23T07:11:13.865Z,44.17
2019-01-23T07:13:42.562Z,41.63
2019-01-23T07:16:11.362Z,43.30
2019-01-23T07:18:40.072Z,46.50
2019-01-23T07:21:08.792Z,43.27
2019-01-23T07:23:37.494Z,43.73
2019-01-23T07:26:06.222Z,41.00
2019-01-23T07:28:34.986Z,42.73
2019-01-23T07:31:03.723Z,42.30
2019-01-23T07:33:32.454Z,44.77
2019-01-23T07:36:01.242Z,43.37
2019-01-23T07:38:30.016Z,43.33
2019-01-23T07:40:58.746Z,45.17
2019-01-23T07:43:27.467Z,40.63
2019-01-23T07:45:56.199Z,41.77
2019-01-23T07:48:24.904Z,44.30
2019-01-23T07:50:53.615Z,42.17
2019-01-23T07:53:22.344Z,44.53
2019-01-23T07:55:51.085Z,48.47
2019-01-23T07:58:19.819Z,46.63
2019-01-23T08:00:48.575Z,45.63
2019-01-23T08:03:17.292Z,43.90
2019-01-23T08:05:46.143Z,46.53
2019-01-23T08:08:14.857Z,41.17
2019-01-23T08:10:43.573Z,43.60
2019-01-23T08:13:12.285Z,45.80
2019-01-23T08:15:41.090Z,52.00
2019-01-23T08:18:10.023Z,47.07
2019-01-23T08:20:38.742Z,48.60
2019-01-23T08:23:07.469Z,46.10
2019-01-23T08:25:36.198Z,44.33
2019-01-23T08:28:05.005Z,46.07
2019-01-23T08:30:38.690Z,42.97
2019-01-23T08:33:04.279Z,48.35
2019-01-23T08:35:33.043Z,53.67
2019-01-23T08:38:01.756Z,46.73
2019-01-23T08:40:30.469Z,46.27
2019-01-23T08:42:59.210Z,44.67
2019-01-23T08:45:27.983Z,43.03
2019-01-23T08:47:56.689Z,43.80
2019-01-23T08:50:30.110Z,42.83
2019-01-23T08:52:58.879Z,45.70
2019-01-23T08:55:27.571Z,44.83
2019-01-23T08:57:56.356Z,42.53
2019-01-23T09:00:25.076Z,44.07
2019-01-23T09:02:53.833Z,43.30
2019-01-23T09:05:22.546Z,42.33
2019-01-23T09:07:51.254Z,45.00
2019-01-23T09:10:20.702Z,43.60
2019-01-23T09:12:49.515Z,42.85
2019-01-23T09:15:18.253Z,40.70
2019-01-23T09:17:47.009Z,43.90
2019-01-23T09:20:16.177Z,39.97
2019-01-23T09:22:44.923Z,45.13
2019-01-23T09:25:14.763Z,45.83
2019-01-23T09:27:43.681Z,42.47
2019-01-23T09:30:14.299Z,44.67
2019-01-23T09:33:20.531Z,41.10
2019-01-23T09:36:11.439Z,43.17
2019-01-23T09:38:44.767Z,40.37
2019-01-23T09:41:23.134Z,42.80
2019-01-23T09:44:13.995Z,42.90
2019-01-23T09:46:59.238Z,41.13
2019-01-23T09:49:31.302Z,41.13
2019-01-23T09:52:19.142Z,42.80
2019-01-23T09:54:47.888Z,42.40
2019-01-23T09:57:16.706Z,39.33
2019-01-23T09:59:45.482Z,43.30
2019-01-23T10:02:14.274Z,39.63
2019-01-23T10:04:43.025Z,41.57
2019-01-23T10:07:11.756Z,38.07
2019-01-23T10:09:40.523Z,36.80
2019-01-23T10:12:09.266Z,41.07
2019-01-23T10:14:38.750Z,36.13
2019-01-23T10:17:07.887Z,36.77
2019-01-23T10:19:36.616Z,38.40
2019-01-23T10:22:05.362Z,41.30
2019-01-23T10:24:35.998Z,37.93
2019-01-23T10:27:04.764Z,36.60
2019-01-23T10:29:33.492Z,38.53
2019-01-23T10:32:02.307Z,38.83
2019-01-23T10:34:32.397Z,39.67
2019-01-23T10:37:01.338Z,45.63
2019-01-23T10:39:30.078Z,35.77
2019-01-23T10:41:58.833Z,40.70
2019-01-23T10:44:27.570Z,37.60
2019-01-23T10:46:56.277Z,36.90
2019-01-23T10:49:25.042Z,35.53
2019-01-23T10:51:53.803Z,33.97
2019-01-23T10:54:22.558Z,37.43
2019-01-23T10:56:51.321Z,36.17
2019-01-23T10:59:20.063Z,35.73
2019-01-23T11:01:48.844Z,34.37
2019-01-23T11:04:17.567Z,35.57
2019-01-23T11:06:46.284Z,36.00
2019-01-23T11:09:15.077Z,38.80
2019-01-23T11:11:43.904Z,36.80
2019-01-23T11:14:12.610Z,41.60
2019-01-23T11:16:41.339Z,37.00
2019-01-23T11:19:10.026Z,36.60
2019-01-23T11:21:38.818Z,36.93
2019-01-23T11:24:07.549Z,36.87
2019-01-23T11:26:36.316Z,34.77
2019-01-23T11:29:05.098Z,37.27
2019-01-23T11:31:33.839Z,36.50
2019-01-23T11:34:02.555Z,35.67
2019-01-23T11:36:31.317Z,36.23
2019-01-23T11:39:00.107Z,38.87
2019-01-23T11:41:28.904Z,36.40
2019-01-23T11:43:57.631Z,40.10
2019-01-23T11:46:26.512Z,37.38
2019-01-23T11:48:55.224Z,35.30
2019-01-23T11:51:23.983Z,36.27
2019-01-23T11:53:52.693Z,39.30
2019-01-23T11:56:21.419Z,36.37
2019-01-23T11:58:50.141Z,34.33
2019-01-23T12:01:18.867Z,42.60
2019-01-23T12:03:47.606Z,40.00
2019-01-23T12:06:16.339Z,37.67
2019-01-23T12:08:45.119Z,41.93
2019-01-23T12:11:13.857Z,39.53
2019-01-23T12:13:42.572Z,35.80
2019-01-23T12:16:11.282Z,40.77
2019-01-23T12:18:40.053Z,39.40
2019-01-23T12:21:08.776Z,38.03
2019-01-23T12:23:37.507Z,40.15
2019-01-23T12:26:06.240Z,36.57
2019-01-23T12:28:35.011Z,38.73
2019-01-23T12:31:03.792Z,37.43
2019-01-23T12:33:32.531Z,38.77
2019-01-23T12:36:01.269Z,35.87
2019-01-23T12:38:29.979Z,37.87
2019-01-23T12:40:58.734Z,36.20
2019-01-23T12:43:27.495Z,39.00
2019-01-23T12:45:56.256Z,39.80
2019-01-23T12:48:25.006Z,37.93
2019-01-23T12:51:14.711Z,36.97
2019-01-23T12:53:43.453Z,37.47
2019-01-23T12:56:12.161Z,37.10
2019-01-23T12:58:40.879Z,37.00
2019-01-23T13:01:09.615Z,34.87
2019-01-23T13:03:38.384Z,37.33
2019-01-23T13:06:07.400Z,39.33
2019-01-23T13:08:36.114Z,34.73
2019-01-23T13:11:04.802Z,37.20
2019-01-23T13:13:33.538Z,36.33
2019-01-23T13:16:02.362Z,35.53
2019-01-23T13:18:32.096Z,39.60
2019-01-23T13:21:01.006Z,39.30
2019-01-23T13:23:29.773Z,36.57
2019-01-23T13:25:58.568Z,38.90
2019-01-23T13:28:27.372Z,36.20
2019-01-23T13:30:56.136Z,37.10
2019-01-23T13:33:24.849Z,33.53
2019-01-23T13:35:53.577Z,36.97
2019-01-23T13:38:22.380Z,33.93
2019-01-23T13:40:51.116Z,34.57
2019-01-23T13:43:19.867Z,38.20
2019-01-23T13:45:48.563Z,35.67
2019-01-23T13:48:17.342Z,34.63
2019-01-23T13:50:46.076Z,33.90
2019-01-23T13:53:14.890Z,33.87
2019-01-23T13:55:43.665Z,34.03
2019-01-23T13:58:12.396Z,32.73
2019-01-23T14:00:41.894Z,35.50
2019-01-23T14:03:10.935Z,33.20
2019-01-23T14:05:39.750Z,33.33
2019-01-23T14:08:09.173Z,32.20
2019-01-23T14:10:37.882Z,35.70
2019-01-23T14:13:06.611Z,34.17
2019-01-23T14:15:36.080Z,35.57
2019-01-23T14:18:05.217Z,35.27
2019-01-23T14:20:34.019Z,36.37
2019-01-23T14:23:02.716Z,37.87
2019-01-23T14:25:31.475Z,36.97
2019-01-23T14:28:00.196Z,39.40
2019-01-23T14:30:30.162Z,37.13
2019-01-23T14:32:58.890Z,37.70
2019-01-23T14:35:27.973Z,35.70
2019-01-23T14:38:00.631Z,36.90
2019-01-23T14:40:27.267Z,37.33
2019-01-23T14:42:56.007Z,37.33
2019-01-23T14:45:24.739Z,36.67
2019-01-23T14:47:53.504Z,39.37
2019-01-23T14:50:22.423Z,35.40
2019-01-23T14:52:51.232Z,36.23
2019-01-23T14:55:20.070Z,39.73
2019-01-23T14:57:48.823Z,34.55
2019-01-23T15:00:18.891Z,36.37
2019-01-23T15:02:47.620Z,34.50
2019-01-23T15:05:16.842Z,36.13
2019-01-23T15:07:45.638Z,35.07
2019-01-23T15:10:15.882Z,33.40
2019-01-23T15:12:44.612Z,33.37
2019-01-23T15:15:14.737Z,35.73
2019-01-23T15:17:43.454Z,35.47
2019-01-23T15:20:14.329Z,36.63
2019-01-23T15:22:43.098Z,34.97
2019-01-23T15:25:35.945Z,35.00
2019-01-23T15:28:05.317Z,36.73
2019-01-23T15:30:34.222Z,33.83
2019-01-23T15:33:02.964Z,31.13
2019-01-23T15:35:31.726Z,32.30
2019-01-23T15:38:00.492Z,35.37
2019-01-23T15:40:30.419Z,34.87
2019-01-23T15:42:59.148Z,32.80
2019-01-23T15:45:28.052Z,31.70
2019-01-23T15:47:56.830Z,32.20
2019-01-23T15:50:25.546Z,31.97
2019-01-23T15:52:54.433Z,33.13
2019-01-23T15:55:23.639Z,32.77
2019-01-23T15:57:52.444Z,36.00
2019-01-23T16:00:25.172Z,36.00
2019-01-23T16:02:54.017Z,30.67
2019-01-23T16:05:22.762Z,34.23
2019-01-23T16:07:51.585Z,33.57
2019-01-23T16:10:21.054Z,34.93
2019-01-23T16:12:49.810Z,32.70
2019-01-23T16:15:19.296Z,30.33
2019-01-23T16:17:48.052Z,35.55
2019-01-23T16:20:16.858Z,32.27
2019-01-23T16:22:45.774Z,33.75
2019-01-23T16:25:14.788Z,32.67
2019-01-23T16:27:43.487Z,35.97
2019-01-23T16:30:15.163Z,34.93
2019-01-23T16:32:44.039Z,33.53
2019-01-23T16:35:12.911Z,33.13
2019-01-23T16:37:41.674Z,31.27
2019-01-23T16:40:10.502Z,33.30
2019-01-23T16:42:39.259Z,34.40
2019-01-23T16:45:08.564Z,32.83
2019-01-23T16:47:37.371Z,35.20
2019-01-23T16:50:08.406Z,35.07
2019-01-23T16:52:37.234Z,35.40
2019-01-23T16:55:06.542Z,35.80
2019-01-23T16:57:35.269Z,34.97
2019-01-23T17:00:05.911Z,31.47
2019-01-23T17:02:38.698Z,36.67
2019-01-23T17:05:07.484Z,34.73
2019-01-23T17:07:36.267Z,34.57
2019-01-23T17:10:05.925Z,33.23
2019-01-23T17:12:34.813Z,36.33
2019-01-23T17:15:03.870Z,35.13
2019-01-23T17:17:32.660Z,34.63
2019-01-23T17:20:01.533Z,33.77
2019-01-23T17:22:34.329Z,33.97
2019-01-23T17:25:03.079Z,34.67
2019-01-23T17:27:31.827Z,33.37
2019-01-23T17:30:00.573Z,34.07
2019-01-23T17:32:29.356Z,32.13
2019-01-23T17:34:59.330Z,32.20
2019-01-23T17:37:28.257Z,33.23
2019-01-23T17:39:57.031Z,32.97
2019-01-23T17:42:25.758Z,36.23
2019-01-23T17:44:54.641Z,37.47
2019-01-23T17:47:23.519Z,36.47
2019-01-23T17:49:52.697Z,37.30
2019-01-23T17:52:25.764Z,32.70
2019-01-23T17:54:54.868Z,34.17
2019-01-23T17:57:23.980Z,34.97
2019-01-23T17:59:52.828Z,35.47
2019-01-23T18:02:21.574Z,34.10
2019-01-23T18:04:50.476Z,33.37
2019-01-23T18:07:19.288Z,34.37
2019-01-23T18:09:48.172Z,34.70
2019-01-23T18:12:16.921Z,35.47
2019-01-23T18:14:49.178Z,31.07
2019-01-23T18:17:16.191Z,34.33
2019-01-23T18:19:45.275Z,36.67
2019-01-23T18:22:14.511Z,36.00
2019-01-23T18:24:43.358Z,35.17
2019-01-23T18:27:12.080Z,37.07
2019-01-23T18:29:40.873Z,37.37
2019-01-23T18:32:10.016Z,40.00
2019-01-23T18:34:53.419Z,40.83
2019-01-23T18:37:47.541Z,37.90
2019-01-23T18:40:44.424Z,36.67
2019-01-23T18:43:37.236Z,36.73
2019-01-23T18:46:24.043Z,40.53
2019-01-23T18:49:24.107Z,37.17
2019-01-23T18:52:02.855Z,38.57
2019-01-23T18:54:31.570Z,39.73
2019-01-23T18:57:00.347Z,39.20
2019-01-23T18:59:29.094Z,35.50
2019-01-23T19:01:57.889Z,35.27
2019-01-23T19:04:26.667Z,34.00
2019-01-23T19:06:55.481Z,35.77
2019-01-23T19:09:24.257Z,39.57
2019-01-23T19:11:53.060Z,36.57
2019-01-23T19:14:24.538Z,38.07
2019-01-23T19:16:52.291Z,33.93
2019-01-23T19:19:21.099Z,38.90
2019-01-23T19:21:55.066Z,37.03
2019-01-23T19:24:20.762Z,35.37
2019-01-23T19:26:52.957Z,35.90
2019-01-23T19:29:23.419Z,37.17
2019-01-23T19:31:52.432Z,38.37
2019-01-23T19:34:21.316Z,38.73
2019-01-23T19:36:50.273Z,38.80
2019-01-23T19:39:19.525Z,37.20
2019-01-23T19:41:48.354Z,38.43
2019-01-23T19:44:17.220Z,37.45
2019-01-23T19:46:45.966Z,35.87
2019-01-23T19:49:14.733Z,40.70
2019-01-23T19:51:43.590Z,37.17
2019-01-23T19:54:12.446Z,46.97
2019-01-23T19:56:41.210Z,34.50
2019-01-23T19:59:09.958Z,41.13
2019-01-23T20:01:38.743Z,34.77
2019-01-23T20:04:07.507Z,35.27
2019-01-23T20:06:36.304Z,34.80
2019-01-23T20:09:07.163Z,37.30
2019-01-23T20:11:35.938Z,34.27
2019-01-23T20:14:05.071Z,34.20
2019-01-23T20:16:33.818Z,35.20
2019-01-23T20:19:03.817Z,32.63
2019-01-23T20:21:32.540Z,34.83
2019-01-23T20:24:01.310Z,35.10
2019-01-23T20:26:30.469Z,35.47
2019-01-23T20:28:59.643Z,34.57
2019-01-23T20:31:28.946Z,36.37
2019-01-23T20:33:58.028Z,33.97
2019-01-23T20:36:26.866Z,32.93
2019-01-23T20:38:55.693Z,35.07
2019-01-23T20:41:24.490Z,34.97
2019-01-23T20:43:53.382Z,33.03
2019-01-23T20:46:22.272Z,35.13
2019-01-23T20:48:51.035Z,34.83
2019-01-23T20:51:19.856Z,34.97
2019-01-23T20:53:48.724Z,33.93
2019-01-23T20:56:17.834Z,35.37
2019-01-23T20:58:46.874Z,33.77
2019-01-23T21:01:15.722Z,32.30
2019-01-23T21:03:44.512Z,35.40
2019-01-23T21:06:13.363Z,36.40
2019-01-23T21:08:42.146Z,37.73
2019-01-23T21:11:11.702Z,34.60
2019-01-23T21:13:40.760Z,35.53
2019-01-23T21:16:09.604Z,36.90
2019-01-23T21:18:38.428Z,39.33
2019-01-23T21:21:07.172Z,38.10
2019-01-23T21:23:35.992Z,33.90
2019-01-23T21:26:04.852Z,35.70
2019-01-23T21:28:33.672Z,36.10
2019-01-23T21:31:02.474Z,36.80
2019-01-23T21:33:31.336Z,35.87
2019-01-23T21:36:00.274Z,34.00
2019-01-23T21:41:03.820Z,42.00
2019-01-23T21:43:32.598Z,36.43
2019-01-23T21:46:01.423Z,40.60
2019-01-23T21:48:30.200Z,36.80
2019-01-23T21:50:59.012Z,33.67
2019-01-23T21:53:27.803Z,35.10
2019-01-23T21:55:56.581Z,33.67
2019-01-23T21:58:25.323Z,37.60
2019-01-23T22:00:55.819Z,33.33
2019-01-23T22:03:24.576Z,36.30
2019-01-23T22:05:53.338Z,34.63
2019-01-23T22:08:22.090Z,37.10
2019-01-23T22:10:50.942Z,36.50
2019-01-23T22:13:19.713Z,36.47
2019-01-23T22:15:48.446Z,34.43
2019-01-23T22:18:17.211Z,39.23
2019-01-23T22:20:45.985Z,36.17
2019-01-23T22:23:14.778Z,39.63
2019-01-23T22:25:43.512Z,30.53
2019-01-23T22:28:12.241Z,35.30
2019-01-23T22:30:41.051Z,35.80
2019-01-23T22:33:09.789Z,37.30
2019-01-23T22:35:38.639Z,36.13
2019-01-23T22:38:07.486Z,34.77
2019-01-23T22:40:36.407Z,37.43
2019-01-23T22:43:05.399Z,36.30
2019-01-23T22:45:34.151Z,34.63
2019-01-23T22:48:02.905Z,34.77
2019-01-23T22:50:31.642Z,33.80
2019-01-23T22:53:00.447Z,40.03
2019-01-23T22:55:29.190Z,36.57
2019-01-23T22:57:57.934Z,36.10
2019-01-23T23:00:42.254Z,35.47
2019-01-23T23:03:12.146Z,31.77
2019-01-23T23:05:41.045Z,37.17
2019-01-23T23:08:09.876Z,39.83
2019-01-23T23:10:38.616Z,37.13
2019-01-23T23:13:07.346Z,36.57
2019-01-23T23:15:36.066Z,37.67
2019-01-23T23:18:05.169Z,35.10
2019-01-23T23:20:33.976Z,41.67
2019-01-23T23:23:02.675Z,38.93
2019-01-23T23:25:31.366Z,37.33
2019-01-23T23:28:00.110Z,37.47
2019-01-23T23:30:28.970Z,42.13
2019-01-23T23:32:57.735Z,38.97
2019-01-23T23:35:26.454Z,38.90
2019-01-23T23:37:55.158Z,41.37
2019-01-23T23:40:23.900Z,36.90
2019-01-23T23:42:52.589Z,39.03
2019-01-23T23:45:21.352Z,35.63
2019-01-23T23:47:50.030Z,41.57
2019-01-23T23:50:18.905Z,37.63
2019-01-23T23:52:47.895Z,41.30
2019-01-23T23:55:16.798Z,36.80
2019-01-23T23:57:45.582Z,41.53
